»·PEaware :: WJA1400 CYYC-KLAS

WJA1400 :: CYYC-KLAS

FLIGHT INFORMATION

Flight Status: Arrived
Operator:
Westjet Airlines
More flights by this operator :: More flights under this callsign
Pilot: Jamyson D. (13674)
Aircraft: BOEING 737-800
(B738)
More flights by this aircraft type
Origin: CYYC Calgary Intl
Canada
Destination: KLAS McCarran Intl
United States
More flights between these airports :: More routes between these airports
Route: UBVAL Q927 SEKOM DLN PATIO PICHO MPIRE SITEE4
File this flight plan on PilotEdge
Remarks: RMK / SIMBRIEF
Altitude:
(Current/Filed)
35,000ft
Speed:
(Current/Filed)
454kts
Departed: 14-Nov-19 11:35 PM
Arrived: 15-Nov-19 02:00 AM
Distance/Time
Traveled:
903nm/2:25
Distance/Time
To Go:
Arrived

Flight Plot

Page will automatically refresh every two minutes.

Flight plan parsing failed; only flown route is shown


Map Options




Map Legend


Flown Route
Filed Route
Departure Airport
Arrival Airport
Navaid (VOR, NDB)
Fix

Horizontal Profiles

Position Reports

Time Latitude Longitude Heading Altitude Ground
Speed
14-Nov-19 23:18 51.129206 -114.001565 359 3564ft 0kts
14-Nov-19 23:19 51.129206 -114.001565 359 3564ft 0kts
14-Nov-19 23:20 51.129206 -114.001565 359 3564ft 0kts
14-Nov-19 23:21 51.129206 -114.001565 359 3564ft 0kts
14-Nov-19 23:22 51.129206 -114.001565 359 3564ft 0kts
14-Nov-19 23:23 51.129206 -114.001565 359 3564ft 0kts
14-Nov-19 23:24 51.129061 -114.001490 330 3565ft 2kts
14-Nov-19 23:25 51.128525 -114.001294 359 3565ft 2kts
14-Nov-19 23:26 51.128069 -114.001448 25 3565ft 0kts
14-Nov-19 23:27 51.128069 -114.001447 25 3564ft 0kts
14-Nov-19 23:28 51.128122 -114.001340 60 3564ft 3kts
14-Nov-19 23:29 51.128564 -113.995534 14 3564ft 6kts
14-Nov-19 23:30 51.131600 -113.993986 90 3564ft 14kts
14-Nov-19 23:31 51.136445 -113.993013 0 3564ft 26kts
14-Nov-19 23:32 51.143812 -113.992987 0 3564ft 24kts
14-Nov-19 23:33 51.147384 -113.990470 142 3564ft 13kts
14-Nov-19 23:34 51.121145 -113.990231 179 3815ft 178kts
14-Nov-19 23:35 51.070587 -113.971791 166 5817ft 201kts
14-Nov-19 23:36 51.013425 -113.949276 168 7272ft 226kts
14-Nov-19 23:38 50.943302 -113.935314 175 8797ft 281kts
14-Nov-19 23:39 50.864440 -113.922549 176 10670ft 321kts
14-Nov-19 23:40 50.772966 -113.907852 176 13049ft 341kts
14-Nov-19 23:41 50.678401 -113.892821 177 15595ft 348kts
14-Nov-19 23:42 50.581447 -113.871311 171 17974ft 357kts
14-Nov-19 23:43 50.482494 -113.840450 172 19986ft 369kts
14-Nov-19 23:44 50.380114 -113.809336 172 21837ft 381kts
14-Nov-19 23:45 50.274546 -113.777358 172 23546ft 393kts
14-Nov-19 23:46 50.165651 -113.744565 172 25117ft 403kts
14-Nov-19 23:47 50.053925 -113.711044 172 26577ft 413kts
14-Nov-19 23:48 49.939799 -113.676957 172 27919ft 423kts
14-Nov-19 23:49 49.823092 -113.642276 172 29152ft 433kts
14-Nov-19 23:50 49.703794 -113.607026 171 30310ft 441kts
14-Nov-19 23:51 49.583510 -113.573282 173 31725ft 439kts
14-Nov-19 23:52 49.463970 -113.542963 173 33110ft 436kts
14-Nov-19 23:53 49.345186 -113.512545 173 34359ft 432kts
14-Nov-19 23:54 49.226687 -113.482382 173 35009ft 442kts
14-Nov-19 23:55 49.104115 -113.451286 173 35027ft 445kts
14-Nov-19 23:56 48.983586 -113.420889 173 35029ft 443kts
14-Nov-19 23:56 48.882251 -113.395442 173 35030ft 444kts
14-Nov-19 23:58 48.741285 -113.360218 173 35019ft 443kts
14-Nov-19 23:58 48.641612 -113.335428 174 35035ft 443kts
15-Nov-19 00:00 48.499921 -113.300378 174 35010ft 443kts
15-Nov-19 00:01 48.378631 -113.270524 174 34989ft 443kts
15-Nov-19 00:01 48.277216 -113.245670 174 35019ft 442kts
15-Nov-19 00:03 48.135972 -113.211212 174 35139ft 443kts
15-Nov-19 00:03 48.034208 -113.186522 174 35121ft 444kts
15-Nov-19 00:04 47.913125 -113.157247 175 35095ft 441kts
15-Nov-19 00:05 47.793681 -113.128519 174 35072ft 442kts
15-Nov-19 00:06 47.672245 -113.099456 174 35046ft 443kts
15-Nov-19 00:07 47.551113 -113.070598 174 35147ft 442kts
15-Nov-19 00:08 47.429812 -113.041834 174 35177ft 443kts
15-Nov-19 00:09 47.308334 -113.013156 174 35185ft 442kts
15-Nov-19 00:10 47.186604 -112.984556 174 35177ft 442kts
15-Nov-19 00:11 47.065073 -112.956135 174 35170ft 442kts
15-Nov-19 00:12 46.943748 -112.927892 174 35177ft 442kts
15-Nov-19 00:13 46.825481 -112.900484 174 35180ft 441kts
15-Nov-19 00:14 46.704200 -112.872509 174 35192ft 442kts
15-Nov-19 00:15 46.583319 -112.844749 174 35193ft 442kts
15-Nov-19 00:16 46.462157 -112.817051 174 35193ft 441kts
15-Nov-19 00:17 46.340827 -112.789439 174 35193ft 442kts
15-Nov-19 00:18 46.219799 -112.762019 174 35192ft 442kts
15-Nov-19 00:19 46.098421 -112.734624 175 35192ft 442kts
15-Nov-19 00:20 45.977160 -112.707412 174 35192ft 442kts
15-Nov-19 00:21 45.857131 -112.680581 175 35194ft 441kts
15-Nov-19 00:22 45.735946 -112.653609 174 35193ft 441kts
15-Nov-19 00:23 45.614839 -112.626774 174 35179ft 441kts
15-Nov-19 00:24 45.493810 -112.600070 174 35176ft 441kts
15-Nov-19 00:25 45.373118 -112.573554 174 35175ft 440kts
15-Nov-19 00:26 45.252286 -112.547869 178 35175ft 438kts
15-Nov-19 00:27 45.131053 -112.546661 183 35175ft 435kts
15-Nov-19 00:28 45.010262 -112.546229 183 35175ft 435kts
15-Nov-19 00:29 44.891768 -112.545791 183 35175ft 434kts
15-Nov-19 00:30 44.770995 -112.545349 183 35177ft 434kts
15-Nov-19 00:31 44.650709 -112.544917 183 35176ft 434kts
15-Nov-19 00:32 44.529571 -112.544477 183 35195ft 434kts
15-Nov-19 00:33 44.409109 -112.544041 183 35200ft 433kts
15-Nov-19 00:34 44.288630 -112.543611 183 35212ft 434kts
15-Nov-19 00:35 44.168339 -112.543180 183 35212ft 433kts
15-Nov-19 00:36 44.047698 -112.542751 183 35211ft 433kts
15-Nov-19 00:37 43.927141 -112.542308 183 35211ft 433kts
15-Nov-19 00:38 43.808438 -112.541904 183 35216ft 433kts
15-Nov-19 00:39 43.688422 -112.541480 183 35229ft 433kts
15-Nov-19 00:40 43.567967 -112.541042 183 35231ft 432kts
15-Nov-19 00:41 43.448166 -112.540641 183 35231ft 432kts
15-Nov-19 00:42 43.328135 -112.540209 183 35224ft 433kts
15-Nov-19 00:43 43.207743 -112.539791 183 35221ft 432kts
15-Nov-19 00:44 43.088011 -112.539391 183 35221ft 433kts
15-Nov-19 00:45 42.967521 -112.538977 183 35221ft 432kts
15-Nov-19 00:46 42.850050 -112.538575 183 35223ft 433kts
15-Nov-19 00:47 42.729444 -112.538164 184 35214ft 433kts
15-Nov-19 00:48 42.609224 -112.537749 184 35224ft 432kts
15-Nov-19 00:49 42.489013 -112.537342 184 35231ft 433kts
15-Nov-19 00:50 42.368691 -112.536945 184 35231ft 433kts
15-Nov-19 00:51 42.248134 -112.536536 184 35231ft 433kts
15-Nov-19 00:52 42.127854 -112.536137 184 35231ft 433kts
15-Nov-19 00:53 42.007279 -112.535730 184 35227ft 433kts
15-Nov-19 00:54 41.888009 -112.535337 184 35223ft 433kts
15-Nov-19 00:55 41.770493 -112.534952 184 35223ft 433kts
15-Nov-19 00:56 41.650462 -112.534555 184 35223ft 433kts
15-Nov-19 00:57 41.530108 -112.534161 184 35223ft 433kts
15-Nov-19 00:58 41.410015 -112.533761 184 35222ft 432kts
15-Nov-19 00:59 41.290022 -112.533378 184 35215ft 433kts
15-Nov-19 01:00 41.170342 -112.537020 186 35217ft 430kts
15-Nov-19 01:01 41.051019 -112.541745 186 35221ft 430kts
15-Nov-19 01:02 40.931677 -112.546370 186 35221ft 430kts
15-Nov-19 01:03 40.815644 -112.550888 186 35224ft 430kts
15-Nov-19 01:04 40.696428 -112.555493 186 35224ft 430kts
15-Nov-19 01:05 40.576888 -112.560096 186 35223ft 431kts
15-Nov-19 01:06 40.457744 -112.564661 186 35223ft 430kts
15-Nov-19 01:07 40.338339 -112.569233 186 35222ft 430kts
15-Nov-19 01:08 40.219422 -112.573691 187 35217ft 417kts
15-Nov-19 01:09 40.104237 -112.578153 187 35225ft 420kts
15-Nov-19 01:10 39.987601 -112.582838 190 35228ft 415kts
15-Nov-19 01:11 39.877966 -112.618188 202 35234ft 406kts
15-Nov-19 01:12 39.769776 -112.661069 201 35226ft 406kts
15-Nov-19 01:13 39.661757 -112.703550 201 35223ft 406kts
15-Nov-19 01:14 39.554296 -112.745654 201 35222ft 404kts
15-Nov-19 01:15 39.446650 -112.787725 201 35221ft 404kts
15-Nov-19 01:16 39.338668 -112.829773 201 35220ft 405kts
15-Nov-19 01:17 39.231065 -112.871536 201 35232ft 403kts
15-Nov-19 01:18 39.123316 -112.913231 201 35235ft 405kts
15-Nov-19 01:19 39.015615 -112.954761 201 35238ft 405kts
15-Nov-19 01:20 38.907598 -112.996287 201 35244ft 405kts
15-Nov-19 01:21 38.802308 -113.036651 201 35249ft 405kts
15-Nov-19 01:22 38.694690 -113.077764 201 35247ft 405kts
15-Nov-19 01:23 38.586837 -113.118842 201 35246ft 405kts
15-Nov-19 01:24 38.479270 -113.159676 201 35245ft 404kts
15-Nov-19 01:25 38.371625 -113.200422 201 35245ft 404kts
15-Nov-19 01:26 38.263852 -113.241078 201 35249ft 404kts
15-Nov-19 01:27 38.156012 -113.281650 201 35253ft 403kts
15-Nov-19 01:28 38.048619 -113.321922 201 35267ft 404kts
15-Nov-19 01:29 37.940930 -113.362165 201 35267ft 403kts
15-Nov-19 01:30 37.834458 -113.401860 201 35273ft 403kts
15-Nov-19 01:31 37.727251 -113.441695 201 35272ft 402kts
15-Nov-19 01:32 37.620294 -113.481319 201 35270ft 402kts
15-Nov-19 01:33 37.515141 -113.527115 209 35271ft 397kts
15-Nov-19 01:34 37.415794 -113.587430 209 35268ft 397kts
15-Nov-19 01:35 37.315466 -113.647481 209 35267ft 403kts
15-Nov-19 01:36 37.215266 -113.707209 209 35256ft 403kts
15-Nov-19 01:37 37.112663 -113.768253 208 32756ft 408kts
15-Nov-19 01:38 37.010553 -113.828848 208 30001ft 408kts
15-Nov-19 01:39 36.909328 -113.888708 208 27591ft 394kts
15-Nov-19 01:40 36.813491 -113.945233 207 25273ft 379kts
15-Nov-19 01:41 36.719834 -114.000318 207 22955ft 365kts
15-Nov-19 01:42 36.629955 -114.053038 207 20685ft 352kts
15-Nov-19 01:43 36.556114 -114.126446 232 18405ft 337kts
15-Nov-19 01:44 36.505123 -114.222643 236 16009ft 331kts
15-Nov-19 01:45 36.456318 -114.317966 236 13814ft 321kts
15-Nov-19 01:46 36.410213 -114.407862 236 12549ft 289kts
15-Nov-19 01:47 36.368795 -114.488197 236 12015ft 274kts
15-Nov-19 01:48 36.328718 -114.565999 236 11012ft 262kts
15-Nov-19 01:49 36.289160 -114.642669 236 9953ft 263kts
15-Nov-19 01:50 36.251496 -114.715754 235 9037ft 244kts
15-Nov-19 01:51 36.217148 -114.782250 235 8395ft 221kts
15-Nov-19 01:52 36.182505 -114.848890 235 7381ft 231kts
15-Nov-19 01:53 36.148274 -114.915127 235 6378ft 224kts
15-Nov-19 01:54 36.137047 -114.984308 269 5684ft 191kts
15-Nov-19 01:55 36.137016 -115.046691 266 4359ft 164kts
15-Nov-19 01:56 36.135775 -115.104247 266 3887ft 168kts
15-Nov-19 01:57 36.114138 -115.148682 204 2552ft 157kts
15-Nov-19 01:59 36.083547 -115.165724 206 2119ft 51kts
15-Nov-19 02:00 36.081610 -115.163693 89 2118ft 9kts
15-Nov-19 02:01 36.081311 -115.159982 87 2118ft 14kts
15-Nov-19 02:02 36.079996 -115.153878 155 2118ft 24kts
15-Nov-19 02:03 36.077680 -115.148535 104 2119ft 14kts
15-Nov-19 02:04 36.077338 -115.143265 94 2118ft 20kts
15-Nov-19 02:05 36.082398 -115.141756 0 2118ft 29kts
15-Nov-19 02:06 36.084965 -115.136721 0 2119ft 5kts
15-Nov-19 02:07 36.085352 -115.136724 359 2119ft 0kts

Navigation Log

Ident Type
Flight plan parsing failed, navigation log unavailable